sensor_id;sensor_type;location;lat;lon;timestamp;P1;durP1;ratioP1;P2;durP2;ratioP2
44842;SDS011;31884;52.538;13.820;2022-12-18T00:01:18;71.88;;;21.98;;
44842;SDS011;31884;52.538;13.820;2022-12-18T00:03:46;67.35;;;18.60;;
44842;SDS011;31884;52.538;13.820;2022-12-18T00:06:12;70.53;;;20.77;;
44842;SDS011;31884;52.538;13.820;2022-12-18T00:08:40;65.20;;;19.02;;
44842;SDS011;31884;52.538;13.820;2022-12-18T00:11:07;73.65;;;20.10;;
44842;SDS011;31884;52.538;13.820;2022-12-18T00:13:35;61.15;;;18.13;;
44842;SDS011;31884;52.538;13.820;2022-12-18T00:16:02;73.30;;;21.50;;
44842;SDS011;31884;52.538;13.820;2022-12-18T00:18:28;69.25;;;21.55;;
44842;SDS011;31884;52.538;13.820;2022-12-18T00:20:57;65.55;;;23.10;;
44842;SDS011;31884;52.538;13.820;2022-12-18T00:23:24;70.35;;;23.80;;
44842;SDS011;31884;52.538;13.820;2022-12-18T00:25:49;60.10;;;17.60;;
44842;SDS011;31884;52.538;13.820;2022-12-18T00:28:15;50.22;;;18.45;;
44842;SDS011;31884;52.538;13.820;2022-12-18T00:30:40;48.78;;;15.88;;
44842;SDS011;31884;52.538;13.820;2022-12-18T00:33:06;48.95;;;15.68;;
44842;SDS011;31884;52.538;13.820;2022-12-18T00:35:31;40.17;;;14.07;;
44842;SDS011;31884;52.538;13.820;2022-12-18T00:37:57;34.70;;;12.95;;
44842;SDS011;31884;52.538;13.820;2022-12-18T00:40:22;37.55;;;13.18;;
44842;SDS011;31884;52.538;13.820;2022-12-18T00:42:48;38.65;;;12.85;;
44842;SDS011;31884;52.538;13.820;2022-12-18T00:45:26;36.17;;;12.32;;
44842;SDS011;31884;52.538;13.820;2022-12-18T00:47:53;44.45;;;14.48;;
44842;SDS011;31884;52.538;13.820;2022-12-18T00:50:19;32.78;;;13.63;;
44842;SDS011;31884;52.538;13.820;2022-12-18T00:52:46;39.03;;;13.05;;
44842;SDS011;31884;52.538;13.820;2022-12-18T00:55:11;38.97;;;14.52;;
44842;SDS011;31884;52.538;13.820;2022-12-18T00:57:38;40.92;;;12.68;;
44842;SDS011;31884;52.538;13.820;2022-12-18T01:00:04;34.92;;;11.80;;
44842;SDS011;31884;52.538;13.820;2022-12-18T01:02:30;32.20;;;12.45;;
44842;SDS011;31884;52.538;13.820;2022-12-18T01:04:56;31.30;;;11.65;;
44842;SDS011;31884;52.538;13.820;2022-12-18T01:07:21;31.65;;;11.25;;
44842;SDS011;31884;52.538;13.820;2022-12-18T01:09:47;33.35;;;11.48;;
44842;SDS011;31884;52.538;13.820;2022-12-18T01:12:12;39.25;;;14.40;;
44842;SDS011;31884;52.538;13.820;2022-12-18T01:14:38;37.90;;;14.88;;
44842;SDS011;31884;52.538;13.820;2022-12-18T01:17:03;35.08;;;12.05;;
44842;SDS011;31884;52.538;13.820;2022-12-18T01:19:29;34.00;;;11.07;;
44842;SDS011;31884;52.538;13.820;2022-12-18T01:21:55;34.45;;;11.32;;
44842;SDS011;31884;52.538;13.820;2022-12-18T01:24:20;30.38;;;11.73;;
44842;SDS011;31884;52.538;13.820;2022-12-18T01:26:46;33.03;;;10.98;;
44842;SDS011;31884;52.538;13.820;2022-12-18T01:29:12;32.03;;;11.07;;
44842;SDS011;31884;52.538;13.820;2022-12-18T01:31:37;27.30;;;10.65;;
44842;SDS011;31884;52.538;13.820;2022-12-18T01:34:03;34.00;;;10.30;;
44842;SDS011;31884;52.538;13.820;2022-12-18T01:36:30;25.58;;;9.02;;
44842;SDS011;31884;52.538;13.820;2022-12-18T01:39:02;28.88;;;9.98;;
44842;SDS011;31884;52.538;13.820;2022-12-18T01:41:32;29.25;;;10.55;;
44842;SDS011;31884;52.538;13.820;2022-12-18T01:47:21;30.92;;;10.50;;
44842;SDS011;31884;52.538;13.820;2022-12-18T01:49:58;27.13;;;11.30;;
44842;SDS011;31884;52.538;13.820;2022-12-18T01:52:27;32.28;;;10.02;;
44842;SDS011;31884;52.538;13.820;2022-12-18T01:54:55;31.30;;;12.27;;
44842;SDS011;31884;52.538;13.820;2022-12-18T01:57:22;33.97;;;11.00;;
44842;SDS011;31884;52.538;13.820;2022-12-18T01:59:49;31.50;;;10.75;;
44842;SDS011;31884;52.538;13.820;2022-12-18T02:02:17;39.60;;;15.05;;
44842;SDS011;31884;52.538;13.820;2022-12-18T02:04:43;41.50;;;12.75;;
44842;SDS011;31884;52.538;13.820;2022-12-18T02:10:09;34.75;;;12.50;;
44842;SDS011;31884;52.538;13.820;2022-12-18T02:12:52;40.72;;;13.93;;
44842;SDS011;31884;52.538;13.820;2022-12-18T02:15:39;32.13;;;10.82;;
44842;SDS011;31884;52.538;13.820;2022-12-18T02:18:18;30.38;;;10.70;;
44842;SDS011;31884;52.538;13.820;2022-12-18T02:23:44;32.63;;;12.32;;
44842;SDS011;31884;52.538;13.820;2022-12-18T02:26:19;30.55;;;11.27;;
44842;SDS011;31884;52.538;13.820;2022-12-18T02:28:51;33.28;;;10.55;;
44842;SDS011;31884;52.538;13.820;2022-12-18T02:31:20;33.17;;;10.38;;
44842;SDS011;31884;52.538;13.820;2022-12-18T02:33:55;31.48;;;11.20;;
44842;SDS011;31884;52.538;13.820;2022-12-18T02:36:23;23.52;;;8.98;;
44842;SDS011;31884;52.538;13.820;2022-12-18T02:38:52;34.38;;;10.90;;
44842;SDS011;31884;52.538;13.820;2022-12-18T02:41:19;32.85;;;10.25;;
44842;SDS011;31884;52.538;13.820;2022-12-18T02:43:47;40.70;;;12.00;;
44842;SDS011;31884;52.538;13.820;2022-12-18T02:48:50;33.58;;;10.00;;
44842;SDS011;31884;52.538;13.820;2022-12-18T02:51:29;31.10;;;10.73;;
44842;SDS011;31884;52.538;13.820;2022-12-18T02:54:06;27.52;;;8.77;;
44842;SDS011;31884;52.538;13.820;2022-12-18T02:56:43;26.13;;;8.52;;
44842;SDS011;31884;52.538;13.820;2022-12-18T02:59:19;28.67;;;9.32;;
44842;SDS011;31884;52.538;13.820;2022-12-18T03:01:57;31.48;;;9.73;;
44842;SDS011;31884;52.538;13.820;2022-12-18T03:04:29;33.95;;;12.85;;
44842;SDS011;31884;52.538;13.820;2022-12-18T03:09:32;34.72;;;11.48;;
44842;SDS011;31884;52.538;13.820;2022-12-18T03:12:09;29.85;;;9.23;;
44842;SDS011;31884;52.538;13.820;2022-12-18T03:14:53;35.40;;;10.77;;
44842;SDS011;31884;52.538;13.820;2022-12-18T03:17:30;39.78;;;11.38;;
44842;SDS011;31884;52.538;13.820;2022-12-18T03:19:58;28.42;;;8.40;;
44842;SDS011;31884;52.538;13.820;2022-12-18T03:22:29;37.20;;;12.85;;
44842;SDS011;31884;52.538;13.820;2022-12-18T03:24:56;31.40;;;11.38;;
44842;SDS011;31884;52.538;13.820;2022-12-18T03:27:25;29.77;;;11.38;;
44842;SDS011;31884;52.538;13.820;2022-12-18T03:29:55;35.30;;;11.48;;
44842;SDS011;31884;52.538;13.820;2022-12-18T03:32:33;26.35;;;10.05;;
44842;SDS011;31884;52.538;13.820;2022-12-18T03:35:05;38.17;;;13.60;;
44842;SDS011;31884;52.538;13.820;2022-12-18T03:37:32;33.13;;;12.60;;
44842;SDS011;31884;52.538;13.820;2022-12-18T03:39:58;35.42;;;12.55;;
44842;SDS011;31884;52.538;13.820;2022-12-18T03:42:26;33.40;;;11.38;;
44842;SDS011;31884;52.538;13.820;2022-12-18T03:44:58;34.97;;;11.93;;
44842;SDS011;31884;52.538;13.820;2022-12-18T03:50:28;35.55;;;12.85;;
44842;SDS011;31884;52.538;13.820;2022-12-18T03:53:00;33.72;;;12.40;;
44842;SDS011;31884;52.538;13.820;2022-12-18T03:55:35;36.78;;;12.68;;
44842;SDS011;31884;52.538;13.820;2022-12-18T03:58:02;31.25;;;11.38;;
44842;SDS011;31884;52.538;13.820;2022-12-18T04:00:30;30.15;;;11.18;;
44842;SDS011;31884;52.538;13.820;2022-12-18T04:02:56;35.15;;;14.32;;
44842;SDS011;31884;52.538;13.820;2022-12-18T04:05:24;42.10;;;14.23;;
44842;SDS011;31884;52.538;13.820;2022-12-18T04:07:52;39.60;;;13.98;;
44842;SDS011;31884;52.538;13.820;2022-12-18T04:10:18;33.60;;;14.38;;
44842;SDS011;31884;52.538;13.820;2022-12-18T04:12:44;39.88;;;14.48;;
44842;SDS011;31884;52.538;13.820;2022-12-18T04:15:10;34.10;;;12.57;;
44842;SDS011;31884;52.538;13.820;2022-12-18T04:17:37;39.00;;;13.65;;
44842;SDS011;31884;52.538;13.820;2022-12-18T04:20:03;37.50;;;13.60;;
44842;SDS011;31884;52.538;13.820;2022-12-18T04:22:29;33.25;;;11.77;;
44842;SDS011;31884;52.538;13.820;2022-12-18T04:24:55;38.00;;;12.15;;
44842;SDS011;31884;52.538;13.820;2022-12-18T04:27:20;33.85;;;11.45;;
44842;SDS011;31884;52.538;13.820;2022-12-18T04:29:46;32.05;;;12.07;;
44842;SDS011;31884;52.538;13.820;2022-12-18T04:32:12;40.40;;;11.95;;
44842;SDS011;31884;52.538;13.820;2022-12-18T04:34:38;38.15;;;14.32;;
44842;SDS011;31884;52.538;13.820;2022-12-18T04:37:03;38.13;;;13.40;;
44842;SDS011;31884;52.538;13.820;2022-12-18T04:39:29;41.75;;;13.32;;
44842;SDS011;31884;52.538;13.820;2022-12-18T04:41:54;39.20;;;11.93;;
44842;SDS011;31884;52.538;13.820;2022-12-18T04:44:20;32.45;;;10.88;;
44842;SDS011;31884;52.538;13.820;2022-12-18T04:46:45;31.17;;;10.48;;
44842;SDS011;31884;52.538;13.820;2022-12-18T04:49:11;37.65;;;12.23;;
44842;SDS011;31884;52.538;13.820;2022-12-18T04:51:37;37.42;;;11.70;;
44842;SDS011;31884;52.538;13.820;2022-12-18T04:54:03;44.78;;;14.75;;
44842;SDS011;31884;52.538;13.820;2022-12-18T04:56:29;43.88;;;15.60;;
44842;SDS011;31884;52.538;13.820;2022-12-18T04:58:56;37.20;;;12.75;;
44842;SDS011;31884;52.538;13.820;2022-12-18T05:01:21;44.00;;;12.90;;
44842;SDS011;31884;52.538;13.820;2022-12-18T05:03:47;31.92;;;10.73;;
44842;SDS011;31884;52.538;13.820;2022-12-18T05:06:12;26.83;;;10.38;;
44842;SDS011;31884;52.538;13.820;2022-12-18T05:08:38;31.15;;;9.77;;
44842;SDS011;31884;52.538;13.820;2022-12-18T05:11:13;38.50;;;10.25;;
44842;SDS011;31884;52.538;13.820;2022-12-18T05:13:40;30.10;;;9.98;;
44842;SDS011;31884;52.538;13.820;2022-12-18T05:16:06;29.92;;;9.95;;
44842;SDS011;31884;52.538;13.820;2022-12-18T05:18:32;28.95;;;9.38;;
44842;SDS011;31884;52.538;13.820;2022-12-18T05:20:58;32.67;;;10.00;;
44842;SDS011;31884;52.538;13.820;2022-12-18T05:23:24;34.33;;;9.65;;
44842;SDS011;31884;52.538;13.820;2022-12-18T05:25:59;38.83;;;12.13;;
44842;SDS011;31884;52.538;13.820;2022-12-18T05:28:27;28.40;;;9.77;;
44842;SDS011;31884;52.538;13.820;2022-12-18T05:30:55;28.48;;;10.13;;
44842;SDS011;31884;52.538;13.820;2022-12-18T05:33:22;32.15;;;9.73;;
44842;SDS011;31884;52.538;13.820;2022-12-18T05:35:50;39.95;;;10.50;;
44842;SDS011;31884;52.538;13.820;2022-12-18T05:38:17;32.55;;;9.38;;
44842;SDS011;31884;52.538;13.820;2022-12-18T05:40:43;30.42;;;10.48;;
44842;SDS011;31884;52.538;13.820;2022-12-18T05:43:08;36.22;;;9.90;;
44842;SDS011;31884;52.538;13.820;2022-12-18T05:45:36;29.25;;;9.00;;
44842;SDS011;31884;52.538;13.820;2022-12-18T05:48:03;30.35;;;10.73;;
44842;SDS011;31884;52.538;13.820;2022-12-18T05:50:29;32.25;;;11.18;;
44842;SDS011;31884;52.538;13.820;2022-12-18T05:52:54;46.70;;;13.40;;
44842;SDS011;31884;52.538;13.820;2022-12-18T05:55:19;32.05;;;10.90;;
44842;SDS011;31884;52.538;13.820;2022-12-18T05:57:45;37.30;;;11.05;;
44842;SDS011;31884;52.538;13.820;2022-12-18T06:00:10;28.08;;;10.57;;
44842;SDS011;31884;52.538;13.820;2022-12-18T06:02:36;34.83;;;11.98;;
44842;SDS011;31884;52.538;13.820;2022-12-18T06:05:02;37.30;;;14.23;;
44842;SDS011;31884;52.538;13.820;2022-12-18T06:07:27;40.88;;;13.82;;
44842;SDS011;31884;52.538;13.820;2022-12-18T06:09:53;36.78;;;13.65;;
44842;SDS011;31884;52.538;13.820;2022-12-18T06:12:18;45.42;;;15.05;;
44842;SDS011;31884;52.538;13.820;2022-12-18T06:14:44;40.40;;;13.57;;
44842;SDS011;31884;52.538;13.820;2022-12-18T06:17:09;36.10;;;13.35;;
44842;SDS011;31884;52.538;13.820;2022-12-18T06:19:35;37.67;;;13.10;;
44842;SDS011;31884;52.538;13.820;2022-12-18T06:22:00;45.05;;;14.85;;
44842;SDS011;31884;52.538;13.820;2022-12-18T06:24:26;44.90;;;15.05;;
44842;SDS011;31884;52.538;13.820;2022-12-18T06:26:51;36.83;;;12.30;;
44842;SDS011;31884;52.538;13.820;2022-12-18T06:29:17;37.28;;;13.75;;
44842;SDS011;31884;52.538;13.820;2022-12-18T06:31:43;38.20;;;13.20;;
44842;SDS011;31884;52.538;13.820;2022-12-18T06:34:08;34.90;;;12.82;;
44842;SDS011;31884;52.538;13.820;2022-12-18T06:36:34;38.97;;;13.45;;
44842;SDS011;31884;52.538;13.820;2022-12-18T06:38:59;34.83;;;12.50;;
44842;SDS011;31884;52.538;13.820;2022-12-18T06:41:25;35.85;;;12.38;;
44842;SDS011;31884;52.538;13.820;2022-12-18T06:43:50;33.17;;;12.45;;
44842;SDS011;31884;52.538;13.820;2022-12-18T06:46:16;34.97;;;11.40;;
44842;SDS011;31884;52.538;13.820;2022-12-18T06:48:42;32.95;;;12.07;;
44842;SDS011;31884;52.538;13.820;2022-12-18T06:51:07;33.10;;;11.25;;
44842;SDS011;31884;52.538;13.820;2022-12-18T06:53:33;30.15;;;11.20;;
44842;SDS011;31884;52.538;13.820;2022-12-18T06:56:02;31.70;;;10.50;;
44842;SDS011;31884;52.538;13.820;2022-12-18T06:58:29;32.15;;;11.48;;
44842;SDS011;31884;52.538;13.820;2022-12-18T07:00:59;31.88;;;10.88;;
44842;SDS011;31884;52.538;13.820;2022-12-18T07:03:26;42.10;;;14.80;;
44842;SDS011;31884;52.538;13.820;2022-12-18T07:05:51;48.58;;;14.88;;
44842;SDS011;31884;52.538;13.820;2022-12-18T07:08:17;45.63;;;14.88;;
44842;SDS011;31884;52.538;13.820;2022-12-18T07:10:43;48.65;;;15.98;;
44842;SDS011;31884;52.538;13.820;2022-12-18T07:13:08;42.97;;;15.10;;
44842;SDS011;31884;52.538;13.820;2022-12-18T07:15:34;36.33;;;13.50;;
44842;SDS011;31884;52.538;13.820;2022-12-18T07:17:59;40.15;;;13.55;;
44842;SDS011;31884;52.538;13.820;2022-12-18T07:20:25;40.33;;;14.02;;
44842;SDS011;31884;52.538;13.820;2022-12-18T07:22:50;42.90;;;14.77;;
44842;SDS011;31884;52.538;13.820;2022-12-18T07:25:16;37.63;;;14.27;;
44842;SDS011;31884;52.538;13.820;2022-12-18T07:27:41;47.67;;;17.30;;
44842;SDS011;31884;52.538;13.820;2022-12-18T07:30:07;38.25;;;14.80;;
44842;SDS011;31884;52.538;13.820;2022-12-18T07:32:33;42.65;;;14.38;;
44842;SDS011;31884;52.538;13.820;2022-12-18T07:34:59;51.00;;;15.70;;
44842;SDS011;31884;52.538;13.820;2022-12-18T07:37:24;49.83;;;16.92;;
44842;SDS011;31884;52.538;13.820;2022-12-18T07:39:50;49.08;;;16.73;;
44842;SDS011;31884;52.538;13.820;2022-12-18T07:42:15;41.58;;;14.10;;
44842;SDS011;31884;52.538;13.820;2022-12-18T07:44:56;44.17;;;14.75;;
44842;SDS011;31884;52.538;13.820;2022-12-18T07:47:26;49.72;;;16.00;;
44842;SDS011;31884;52.538;13.820;2022-12-18T07:49:52;49.13;;;15.65;;
44842;SDS011;31884;52.538;13.820;2022-12-18T07:52:17;56.58;;;17.35;;
44842;SDS011;31884;52.538;13.820;2022-12-18T07:54:43;45.78;;;14.55;;
44842;SDS011;31884;52.538;13.820;2022-12-18T07:57:09;47.65;;;16.95;;
44842;SDS011;31884;52.538;13.820;2022-12-18T07:59:34;49.58;;;17.90;;
44842;SDS011;31884;52.538;13.820;2022-12-18T08:02:00;42.70;;;15.68;;
44842;SDS011;31884;52.538;13.820;2022-12-18T08:04:25;52.15;;;15.88;;
44842;SDS011;31884;52.538;13.820;2022-12-18T08:06:51;40.10;;;13.90;;
44842;SDS011;31884;52.538;13.820;2022-12-18T08:09:16;47.75;;;15.63;;
44842;SDS011;31884;52.538;13.820;2022-12-18T08:11:42;33.30;;;11.23;;
44842;SDS011;31884;52.538;13.820;2022-12-18T08:14:08;52.55;;;16.77;;
44842;SDS011;31884;52.538;13.820;2022-12-18T08:16:34;52.42;;;16.13;;
44842;SDS011;31884;52.538;13.820;2022-12-18T08:19:00;48.72;;;15.57;;
44842;SDS011;31884;52.538;13.820;2022-12-18T08:21:27;43.13;;;17.10;;
44842;SDS011;31884;52.538;13.820;2022-12-18T08:23:55;46.20;;;16.20;;
44842;SDS011;31884;52.538;13.820;2022-12-18T08:26:23;38.55;;;13.20;;
44842;SDS011;31884;52.538;13.820;2022-12-18T08:28:50;46.10;;;16.13;;
44842;SDS011;31884;52.538;13.820;2022-12-18T08:31:16;49.85;;;16.92;;
44842;SDS011;31884;52.538;13.820;2022-12-18T08:33:42;41.35;;;14.23;;
44842;SDS011;31884;52.538;13.820;2022-12-18T08:36:08;45.80;;;15.38;;
44842;SDS011;31884;52.538;13.820;2022-12-18T08:38:34;45.38;;;13.20;;
44842;SDS011;31884;52.538;13.820;2022-12-18T08:41:01;54.47;;;16.60;;
44842;SDS011;31884;52.538;13.820;2022-12-18T08:43:27;51.80;;;14.95;;
44842;SDS011;31884;52.538;13.820;2022-12-18T08:46:11;47.13;;;14.93;;
44842;SDS011;31884;52.538;13.820;2022-12-18T08:48:37;55.47;;;18.77;;
44842;SDS011;31884;52.538;13.820;2022-12-18T08:51:03;52.85;;;17.42;;
44842;SDS011;31884;52.538;13.820;2022-12-18T08:53:28;58.30;;;18.13;;
44842;SDS011;31884;52.538;13.820;2022-12-18T08:55:55;54.33;;;17.40;;
44842;SDS011;31884;52.538;13.820;2022-12-18T08:58:21;51.75;;;14.93;;
44842;SDS011;31884;52.538;13.820;2022-12-18T09:00:47;40.53;;;14.90;;
44842;SDS011;31884;52.538;13.820;2022-12-18T09:03:13;49.58;;;14.90;;
44842;SDS011;31884;52.538;13.820;2022-12-18T09:05:39;54.03;;;14.00;;
44842;SDS011;31884;52.538;13.820;2022-12-18T09:08:05;53.83;;;14.73;;
44842;SDS011;31884;52.538;13.820;2022-12-18T09:10:31;47.78;;;14.05;;
44842;SDS011;31884;52.538;13.820;2022-12-18T09:12:57;38.78;;;13.40;;
44842;SDS011;31884;52.538;13.820;2022-12-18T09:15:22;38.47;;;11.48;;
44842;SDS011;31884;52.538;13.820;2022-12-18T09:17:48;32.50;;;10.35;;
44842;SDS011;31884;52.538;13.820;2022-12-18T09:20:14;34.63;;;13.35;;
44842;SDS011;31884;52.538;13.820;2022-12-18T09:22:40;42.15;;;14.40;;
44842;SDS011;31884;52.538;13.820;2022-12-18T09:25:06;46.70;;;14.70;;
44842;SDS011;31884;52.538;13.820;2022-12-18T09:27:35;38.95;;;15.40;;
44842;SDS011;31884;52.538;13.820;2022-12-18T09:30:00;42.30;;;15.95;;
44842;SDS011;31884;52.538;13.820;2022-12-18T09:32:27;46.78;;;14.80;;
44842;SDS011;31884;52.538;13.820;2022-12-18T09:34:52;36.58;;;13.73;;
44842;SDS011;31884;52.538;13.820;2022-12-18T09:37:18;44.45;;;15.65;;
44842;SDS011;31884;52.538;13.820;2022-12-18T09:39:43;39.85;;;13.40;;
44842;SDS011;31884;52.538;13.820;2022-12-18T09:42:12;38.13;;;13.48;;
44842;SDS011;31884;52.538;13.820;2022-12-18T09:44:48;38.17;;;14.30;;
44842;SDS011;31884;52.538;13.820;2022-12-18T09:47:17;47.45;;;15.02;;
44842;SDS011;31884;52.538;13.820;2022-12-18T09:49:53;36.17;;;12.68;;
44842;SDS011;31884;52.538;13.820;2022-12-18T09:52:33;45.90;;;15.57;;
44842;SDS011;31884;52.538;13.820;2022-12-18T09:55:11;39.42;;;13.13;;
44842;SDS011;31884;52.538;13.820;2022-12-18T09:57:57;36.08;;;12.68;;
44842;SDS011;31884;52.538;13.820;2022-12-18T10:00:52;35.33;;;13.13;;
44842;SDS011;31884;52.538;13.820;2022-12-18T10:03:18;36.65;;;13.70;;
44842;SDS011;31884;52.538;13.820;2022-12-18T10:05:54;39.97;;;14.57;;
44842;SDS011;31884;52.538;13.820;2022-12-18T10:08:38;42.03;;;14.75;;
44842;SDS011;31884;52.538;13.820;2022-12-18T10:14:13;33.50;;;12.23;;
44842;SDS011;31884;52.538;13.820;2022-12-18T10:16:43;34.97;;;12.27;;
44842;SDS011;31884;52.538;13.820;2022-12-18T10:19:19;30.05;;;11.95;;
44842;SDS011;31884;52.538;13.820;2022-12-18T10:22:30;40.85;;;13.70;;
44842;SDS011;31884;52.538;13.820;2022-12-18T10:25:21;35.80;;;13.43;;
44842;SDS011;31884;52.538;13.820;2022-12-18T10:28:00;40.05;;;14.05;;
44842;SDS011;31884;52.538;13.820;2022-12-18T10:30:38;33.45;;;11.85;;
44842;SDS011;31884;52.538;13.820;2022-12-18T10:33:04;46.10;;;14.55;;
44842;SDS011;31884;52.538;13.820;2022-12-18T10:35:30;45.25;;;14.88;;
44842;SDS011;31884;52.538;13.820;2022-12-18T10:38:04;31.73;;;11.98;;
44842;SDS011;31884;52.538;13.820;2022-12-18T10:40:32;44.50;;;15.02;;
44842;SDS011;31884;52.538;13.820;2022-12-18T10:43:12;36.10;;;14.68;;
44842;SDS011;31884;52.538;13.820;2022-12-18T10:45:39;35.65;;;13.55;;
44842;SDS011;31884;52.538;13.820;2022-12-18T10:48:08;44.25;;;15.60;;
44842;SDS011;31884;52.538;13.820;2022-12-18T10:50:45;40.65;;;13.43;;
44842;SDS011;31884;52.538;13.820;2022-12-18T10:53:13;47.33;;;15.70;;
44842;SDS011;31884;52.538;13.820;2022-12-18T10:55:45;35.83;;;13.65;;
44842;SDS011;31884;52.538;13.820;2022-12-18T10:58:22;34.00;;;12.80;;
44842;SDS011;31884;52.538;13.820;2022-12-18T11:01:09;38.53;;;14.40;;
44842;SDS011;31884;52.538;13.820;2022-12-18T11:03:43;42.17;;;15.88;;
44842;SDS011;31884;52.538;13.820;2022-12-18T11:06:14;43.22;;;15.52;;
44842;SDS011;31884;52.538;13.820;2022-12-18T11:08:42;48.38;;;16.48;;
44842;SDS011;31884;52.538;13.820;2022-12-18T11:11:17;46.70;;;15.02;;
44842;SDS011;31884;52.538;13.820;2022-12-18T11:14:20;43.53;;;16.20;;
44842;SDS011;31884;52.538;13.820;2022-12-18T11:16:44;46.90;;;16.90;;
44842;SDS011;31884;52.538;13.820;2022-12-18T11:19:31;46.70;;;16.40;;
44842;SDS011;31884;52.538;13.820;2022-12-18T11:21:59;41.53;;;14.93;;
44842;SDS011;31884;52.538;13.820;2022-12-18T11:24:31;48.65;;;15.57;;
44842;SDS011;31884;52.538;13.820;2022-12-18T11:26:59;46.63;;;17.17;;
44842;SDS011;31884;52.538;13.820;2022-12-18T11:29:32;43.80;;;16.17;;
44842;SDS011;31884;52.538;13.820;2022-12-18T11:32:20;50.92;;;18.02;;
44842;SDS011;31884;52.538;13.820;2022-12-18T11:34:52;38.30;;;16.33;;
44842;SDS011;31884;52.538;13.820;2022-12-18T11:37:33;40.90;;;14.20;;
44842;SDS011;31884;52.538;13.820;2022-12-18T11:40:01;42.78;;;16.73;;
44842;SDS011;31884;52.538;13.820;2022-12-18T11:42:47;41.10;;;16.98;;
44842;SDS011;31884;52.538;13.820;2022-12-18T11:45:20;43.08;;;15.10;;
44842;SDS011;31884;52.538;13.820;2022-12-18T11:50:28;37.97;;;16.17;;
44842;SDS011;31884;52.538;13.820;2022-12-18T11:53:13;40.03;;;15.35;;
44842;SDS011;31884;52.538;13.820;2022-12-18T11:55:45;39.65;;;17.27;;
44842;SDS011;31884;52.538;13.820;2022-12-18T12:01:08;41.50;;;15.55;;
44842;SDS011;31884;52.538;13.820;2022-12-18T12:12:18;41.40;;;15.45;;
44842;SDS011;31884;52.538;13.820;2022-12-18T12:18:01;41.10;;;15.70;;
44842;SDS011;31884;52.538;13.820;2022-12-18T12:26:58;35.63;;;14.15;;
44842;SDS011;31884;52.538;13.820;2022-12-18T12:35:59;26.58;;;11.55;;
44842;SDS011;31884;52.538;13.820;2022-12-18T12:38:51;29.92;;;11.55;;
44842;SDS011;31884;52.538;13.820;2022-12-18T12:41:22;32.45;;;14.00;;
44842;SDS011;31884;52.538;13.820;2022-12-18T12:44:32;37.05;;;14.45;;
44842;SDS011;31884;52.538;13.820;2022-12-18T12:47:45;28.85;;;10.93;;
44842;SDS011;31884;52.538;13.820;2022-12-18T12:49:56;34.63;;;13.48;;
44842;SDS011;31884;52.538;13.820;2022-12-18T12:52:27;33.85;;;12.93;;
44842;SDS011;31884;52.538;13.820;2022-12-18T12:55:02;32.20;;;12.07;;
44842;SDS011;31884;52.538;13.820;2022-12-18T12:57:31;34.03;;;11.57;;
44842;SDS011;31884;52.538;13.820;2022-12-18T13:00:04;26.92;;;10.63;;
44842;SDS011;31884;52.538;13.820;2022-12-18T13:05:38;22.60;;;9.60;;
44842;SDS011;31884;52.538;13.820;2022-12-18T13:08:12;33.85;;;13.13;;
44842;SDS011;31884;52.538;13.820;2022-12-18T13:10:48;37.30;;;14.32;;
44842;SDS011;31884;52.538;13.820;2022-12-18T13:13:13;35.00;;;14.55;;
44842;SDS011;31884;52.538;13.820;2022-12-18T13:20:35;31.05;;;13.45;;
44842;SDS011;31884;52.538;13.820;2022-12-18T13:23:19;39.95;;;14.50;;
44842;SDS011;31884;52.538;13.820;2022-12-18T13:25:45;34.72;;;13.27;;
44842;SDS011;31884;52.538;13.820;2022-12-18T13:28:12;36.03;;;13.63;;
44842;SDS011;31884;52.538;13.820;2022-12-18T13:43:48;33.58;;;13.23;;
44842;SDS011;31884;52.538;13.820;2022-12-18T13:46:28;34.53;;;12.82;;
44842;SDS011;31884;52.538;13.820;2022-12-18T13:51:48;29.50;;;11.77;;
44842;SDS011;31884;52.538;13.820;2022-12-18T13:54:35;34.83;;;13.55;;
44842;SDS011;31884;52.538;13.820;2022-12-18T13:57:05;31.27;;;14.20;;
44842;SDS011;31884;52.538;13.820;2022-12-18T13:59:49;20.75;;;8.32;;
44842;SDS011;31884;52.538;13.820;2022-12-18T14:02:16;31.75;;;13.32;;
44842;SDS011;31884;52.538;13.820;2022-12-18T14:04:46;29.20;;;11.63;;
44842;SDS011;31884;52.538;13.820;2022-12-18T14:07:16;28.75;;;12.60;;
44842;SDS011;31884;52.538;13.820;2022-12-18T14:09:48;37.75;;;13.43;;
44842;SDS011;31884;52.538;13.820;2022-12-18T14:12:32;33.83;;;12.00;;
44842;SDS011;31884;52.538;13.820;2022-12-18T14:17:54;41.25;;;16.17;;
44842;SDS011;31884;52.538;13.820;2022-12-18T14:20:24;33.53;;;15.05;;
44842;SDS011;31884;52.538;13.820;2022-12-18T14:22:50;36.58;;;15.88;;
44842;SDS011;31884;52.538;13.820;2022-12-18T14:25:17;38.83;;;15.60;;
44842;SDS011;31884;52.538;13.820;2022-12-18T14:27:48;35.47;;;14.65;;
44842;SDS011;31884;52.538;13.820;2022-12-18T14:30:29;37.70;;;16.85;;
44842;SDS011;31884;52.538;13.820;2022-12-18T14:33:09;41.35;;;15.35;;
44842;SDS011;31884;52.538;13.820;2022-12-18T14:36:02;40.95;;;15.90;;
44842;SDS011;31884;52.538;13.820;2022-12-18T14:39:01;38.20;;;15.77;;
44842;SDS011;31884;52.538;13.820;2022-12-18T14:41:21;31.70;;;13.73;;
44842;SDS011;31884;52.538;13.820;2022-12-18T14:43:49;30.90;;;12.88;;
44842;SDS011;31884;52.538;13.820;2022-12-18T14:48:54;33.65;;;14.45;;
44842;SDS011;31884;52.538;13.820;2022-12-18T14:51:22;41.13;;;16.23;;
44842;SDS011;31884;52.538;13.820;2022-12-18T14:53:53;35.75;;;14.45;;
44842;SDS011;31884;52.538;13.820;2022-12-18T14:56:28;34.05;;;14.48;;
44842;SDS011;31884;52.538;13.820;2022-12-18T14:59:00;31.58;;;14.07;;
44842;SDS011;31884;52.538;13.820;2022-12-18T15:04:02;42.13;;;15.63;;
44842;SDS011;31884;52.538;13.820;2022-12-18T15:06:35;42.30;;;16.17;;
44842;SDS011;31884;52.538;13.820;2022-12-18T15:09:03;41.60;;;15.23;;
44842;SDS011;31884;52.538;13.820;2022-12-18T15:17:21;45.83;;;16.95;;
44842;SDS011;31884;52.538;13.820;2022-12-18T15:19:48;38.53;;;15.13;;
44842;SDS011;31884;52.538;13.820;2022-12-18T15:22:20;47.35;;;17.30;;
44842;SDS011;31884;52.538;13.820;2022-12-18T15:24:46;45.92;;;18.50;;
44842;SDS011;31884;52.538;13.820;2022-12-18T15:27:31;54.72;;;25.25;;
44842;SDS011;31884;52.538;13.820;2022-12-18T15:32:38;41.92;;;16.35;;
44842;SDS011;31884;52.538;13.820;2022-12-18T15:37:36;40.83;;;16.35;;
44842;SDS011;31884;52.538;13.820;2022-12-18T15:40:02;54.08;;;20.55;;
44842;SDS011;31884;52.538;13.820;2022-12-18T15:42:28;40.00;;;17.05;;
44842;SDS011;31884;52.538;13.820;2022-12-18T15:45:12;32.63;;;13.45;;
44842;SDS011;31884;52.538;13.820;2022-12-18T15:47:39;34.33;;;14.98;;
44842;SDS011;31884;52.538;13.820;2022-12-18T15:50:05;44.33;;;14.93;;
44842;SDS011;31884;52.538;13.820;2022-12-18T15:52:35;35.58;;;14.45;;
44842;SDS011;31884;52.538;13.820;2022-12-18T15:55:10;31.95;;;13.70;;
44842;SDS011;31884;52.538;13.820;2022-12-18T15:57:59;31.45;;;14.27;;